CDT,Max TemperatureF,Mean TemperatureF,Min TemperatureF,Max Dew PointF,MeanDew PointF,Min DewpointF,Max Humidity, Mean Humidity, Min Humidity, Max Sea Level PressureIn, Mean Sea Level PressureIn, Min Sea Level PressureIn, Max VisibilityMiles, Mean VisibilityMiles, Min VisibilityMiles, Max Wind SpeedMPH, Mean Wind SpeedMPH, Max Gust SpeedMPH,PrecipitationIn, CloudCover, Events, WindDirDegrees
2012-9-1,87,74,62,64,57,46,65,54,46,30.12,30.06,29.97,10,10,10,16,10,21,0.00,0,,123
2012-9-2,91,78,64,66,61,55,78,60,40,29.99,29.91,29.83,10,10,10,23,13,28,0.00,0,,174
2012-9-3,89,71,53,63,54,46,94,57,22,29.99,29.93,29.87,10,10,5,34,6,45,0.06,0,Thunderstorm,127
2012-9-4,89,72,55,64,53,39,94,57,17,29.93,29.87,29.73,10,10,5,18,6,28,0.28,1,Thunderstorm,154
2012-9-5,73,63,53,54,49,43,88,61,35,29.99,29.94,29.78,10,10,10,17,9,23,0.00,0,,327
2012-9-6,78,63,48,55,49,43,88,65,29,30.01,29.95,29.86,10,10,10,17,5,22,0.00,1,,114
2012-9-7,66,57,48,54,46,39,94,65,40,30.16,30.09,29.95,10,10,10,21,12,28,0.00,2,,339
2012-9-8,80,61,42,46,41,34,93,57,24,30.18,30.08,29.98,10,10,10,28,8,36,0.00,0,,302
2012-9-9,73,57,41,48,43,39,93,62,29,30.28,30.18,30.08,10,10,10,12,4,,0.00,0,,190
2012-9-10,87,70,53,46,46,45,72,48,24,30.07,29.89,29.74,10,10,10,30,15,39,0.00,0,,168
2012-9-11,93,78,62,52,46,37,46,36,21,30.01,29.78,29.73,10,10,9,23,14,32,0.00,0,,192
2012-9-12,62,58,53,48,44,39,82,64,42,30.11,30.07,30.02,10,10,10,17,11,22,0.00,8,,359
2012-9-13,,,,,,,,,,,,,,,,,,,,,,
2012-9-14,,,,,,,,,,,,,,,,,,,,,,
2012-9-15,,,,,,,,,,,,,,,,,,,,,,
2012-9-16,,,,,,,,,,,,,,,,,,,,,,
2012-9-17,,,,,,,,,,,,,,,,,,,,,,
2012-9-18,,,,,,,,,,,,,,,,,,,,,,
2012-9-19,,,,,,,,,,,,,,,,,,,,,,
2012-9-20,,,,,,,,,,,,,,,,,,,,,,
2012-9-21,66,55,42,37,35,28,62,42,34,30.07,29.93,29.88,10,10,10,26,19,33,0.00,3,,324
2012-9-22,55,42,30,36,27,19,87,57,31,30.32,30.25,30.08,10,10,9,24,11,28,0.00,0,,327
2012-9-23,62,43,24,34,26,21,93,55,24,30.37,30.29,30.17,10,10,10,8,1,,0.00,0,,143
2012-9-24,75,57,39,39,33,27,70,44,22,30.17,29.96,29.84,10,10,5,15,7,20,0.00,0,,217
2012-9-25,71,54,37,39,36,30,87,53,24,30.02,29.92,29.85,10,10,6,10,3,22,0.00,0,,24
2012-9-26,66,49,32,37,29,25,87,50,21,30.22,30.14,30.02,10,10,5,15,4,18,0.00,0,,27
2012-9-27,71,50,30,36,30,27,93,50,20,30.28,30.22,30.17,10,10,7,9,2,,0.00,0,,131
2012-9-28,75,56,37,39,34,30,81,47,21,30.25,30.19,30.14,10,9,3,9,2,,0.00,0,,132
2012-9-29,80,60,39,41,36,34,81,47,18,30.18,30.12,30.04,10,10,6,12,3,,0.00,0,,160
2012-9-30,80,60,41,45,38,36,81,48,21,30.07,29.99,29.93,10,10,8,13,4,17,0.00,0,,186